Time;durP1;ratioP1;P1;durP2;ratioP2;P2;SDS_P1;SDS_P2;PMS_P1;PMS_P2;Temp;Humidity;BMP_temperature;BMP_pressure;BME280_temperature;BME280_humidity;BME280_pressure;Samples;Min_cycle;Max_cycle;Signal;HPM_P1;HPM_P2
2022/02/14 00:00:14;;;;;;;6.22;2.90;;;10.80;84.50;;;;;;2106906;28;20023;-69
2022/02/14 00:01:15;;;;;;;7.13;2.95;;;10.80;84.50;;;;;;2104641;28;20047;-69
2022/02/14 00:02:16;;;;;;;5.65;2.60;;;10.80;84.40;;;;;;2102552;28;20031;-69
2022/02/14 00:03:16;;;;;;;6.53;3.00;;;10.90;84.70;;;;;;2108897;28;20016;-69
2022/02/14 00:04:17;;;;;;;5.47;2.85;;;10.90;84.60;;;;;;2109685;28;20044;-69
2022/02/14 00:05:17;;;;;;;6.30;2.83;;;10.90;85.70;;;;;;2104181;28;20025;-69
2022/02/14 00:06:18;;;;;;;4.43;2.72;;;10.90;85.20;;;;;;2103865;28;20039;-69
2022/02/14 00:07:18;;;;;;;9.85;3.03;;;10.90;85.40;;;;;;2105830;28;20114;-69
2022/02/14 00:08:19;;;;;;;4.78;2.63;;;10.90;85.60;;;;;;2104595;28;20023;-69
2022/02/14 00:09:19;;;;;;;6.40;3.05;;;10.90;85.30;;;;;;2106809;28;20024;-69
2022/02/14 00:10:20;;;;;;;5.40;3.08;;;10.90;85.20;;;;;;2102811;28;20095;-69
2022/02/14 00:11:24;;;;;;;5.57;2.92;;;10.90;85.10;;;;;;2108805;28;20052;-69
2022/02/14 00:12:25;;;;;;;4.57;2.42;;;10.90;85.30;;;;;;2106597;28;20012;-69
2022/02/14 00:13:25;;;;;;;8.75;3.78;;;11.00;85.30;;;;;;2107409;28;20026;-69
2022/02/14 00:14:27;;;;;;;7.07;2.88;;;11.00;85.70;;;;;;2108357;28;20011;-69
2022/02/14 00:15:28;;;;;;;7.70;2.78;;;11.00;85.60;;;;;;2103765;28;20012;-69
2022/02/14 00:16:28;;;;;;;5.47;2.72;;;11.00;85.90;;;;;;2104638;28;20052;-69
2022/02/14 00:17:29;;;;;;;6.65;3.00;;;11.00;86.10;;;;;;2105538;28;20043;-69
2022/02/14 00:18:29;;;;;;;8.45;2.83;;;10.90;85.80;;;;;;2105456;28;20051;-69
2022/02/14 00:19:30;;;;;;;7.28;2.83;;;11.00;86.00;;;;;;2106942;28;20050;-69
2022/02/14 00:20:31;;;;;;;8.55;3.38;;;11.00;85.90;;;;;;2108891;28;20679;-69
2022/02/14 00:21:31;;;;;;;6.35;2.83;;;11.00;85.90;;;;;;2110050;28;20383;-69
2022/02/14 00:22:32;;;;;;;7.50;3.33;;;11.00;86.00;;;;;;2108059;28;20024;-69
2022/02/14 00:23:32;;;;;;;6.40;2.40;;;11.00;86.00;;;;;;2099824;28;20382;-69
2022/02/14 00:24:33;;;;;;;6.72;2.83;;;11.00;86.00;;;;;;2103342;28;20060;-69
2022/02/14 00:25:33;;;;;;;6.57;2.97;;;11.00;86.00;;;;;;2105383;28;20026;-69
2022/02/14 00:26:34;;;;;;;4.45;2.60;;;11.00;85.90;;;;;;2103608;28;20799;-69
2022/02/14 00:27:35;;;;;;;7.30;2.42;;;11.00;85.60;;;;;;2103279;28;20353;-69
2022/02/14 00:28:35;;;;;;;6.03;2.75;;;11.00;85.80;;;;;;2102452;28;20016;-69
2022/02/14 00:29:36;;;;;;;5.88;2.75;;;11.00;85.80;;;;;;2104052;28;20024;-69
2022/02/14 00:30:36;;;;;;;7.35;2.97;;;11.00;85.90;;;;;;2100856;28;20016;-69
2022/02/14 00:31:37;;;;;;;7.15;2.90;;;11.00;86.00;;;;;;2105738;28;20028;-69
2022/02/14 00:32:37;;;;;;;7.00;2.70;;;11.00;85.90;;;;;;2104730;28;20100;-69
2022/02/14 00:33:38;;;;;;;6.50;3.33;;;11.00;85.80;;;;;;2103046;28;20069;-69
2022/02/14 00:34:39;;;;;;;7.40;2.95;;;11.00;86.10;;;;;;2103821;28;20059;-69
2022/02/14 00:35:39;;;;;;;6.60;3.03;;;11.00;85.80;;;;;;2109527;28;20503;-69
2022/02/14 00:36:41;;;;;;;5.65;2.90;;;11.00;85.90;;;;;;2106055;28;20016;-69
2022/02/14 00:37:42;;;;;;;4.60;2.60;;;11.00;85.90;;;;;;2105072;28;20452;-69
2022/02/14 00:38:43;;;;;;;9.73;2.97;;;11.00;86.10;;;;;;2104072;28;20376;-69
2022/02/14 00:39:44;;;;;;;6.30;2.92;;;11.00;86.00;;;;;;2102435;28;20490;-69
2022/02/14 00:40:44;;;;;;;8.35;3.20;;;11.00;85.90;;;;;;2102733;28;20020;-69
2022/02/14 00:41:45;;;;;;;8.40;2.72;;;11.00;86.00;;;;;;2099549;28;20047;-69
2022/02/14 00:42:45;;;;;;;5.70;2.78;;;11.00;86.10;;;;;;2104546;28;20490;-69
2022/02/14 00:43:46;;;;;;;5.40;2.92;;;11.00;86.20;;;;;;2105962;28;20028;-69
2022/02/14 00:44:47;;;;;;;6.75;2.53;;;11.00;86.30;;;;;;2104330;28;20031;-69
2022/02/14 00:45:49;;;;;;;9.32;2.90;;;11.00;86.20;;;;;;2104086;28;20385;-69
2022/02/14 00:46:50;;;;;;;7.97;2.92;;;11.00;86.30;;;;;;2103968;28;20368;-69
2022/02/14 00:47:50;;;;;;;7.43;2.78;;;11.00;86.60;;;;;;2107073;28;20034;-69
2022/02/14 00:48:51;;;;;;;7.60;2.63;;;11.00;86.40;;;;;;2110809;28;20468;-69
2022/02/14 00:49:52;;;;;;;6.78;2.85;;;11.00;86.30;;;;;;2102728;28;20032;-69
2022/02/14 00:50:52;;;;;;;7.40;3.17;;;11.00;86.40;;;;;;2103110;28;20037;-69
2022/02/14 00:51:53;;;;;;;5.60;2.72;;;11.00;86.60;;;;;;2108594;28;20077;-69
2022/02/14 00:52:54;;;;;;;5.53;3.08;;;11.00;86.80;;;;;;2107333;28;20507;-69
2022/02/14 00:53:54;;;;;;;8.35;2.83;;;11.00;86.80;;;;;;2106438;28;20024;-69
2022/02/14 00:54:57;;;;;;;7.85;3.40;;;11.00;86.80;;;;;;2105518;28;20043;-69
2022/02/14 00:55:58;;;;;;;8.27;3.17;;;11.00;86.90;;;;;;2106384;28;20024;-69
2022/02/14 00:56:59;;;;;;;4.00;2.90;;;11.00;86.80;;;;;;2103401;28;20024;-69
2022/02/14 00:58:00;;;;;;;5.30;2.78;;;11.00;86.90;;;;;;2105763;28;20483;-69
2022/02/14 00:59:00;;;;;;;5.05;2.50;;;11.00;87.30;;;;;;2103829;28;20059;-69
2022/02/14 01:00:01;;;;;;;6.88;2.88;;;11.00;87.10;;;;;;2107515;28;20058;-69
2022/02/14 01:01:01;;;;;;;7.28;2.70;;;11.00;86.90;;;;;;2107328;28;20472;-69
2022/02/14 01:02:03;;;;;;;7.50;2.92;;;11.00;87.40;;;;;;2104670;28;20067;-69
2022/02/14 01:03:03;;;;;;;9.60;2.67;;;11.00;87.10;;;;;;2104680;28;20028;-69
2022/02/14 01:04:05;;;;;;;7.35;2.67;;;11.00;87.50;;;;;;2103445;28;20028;-69
2022/02/14 01:05:07;;;;;;;8.23;2.83;;;11.00;87.30;;;;;;2102860;28;20468;-69
2022/02/14 01:06:07;;;;;;;6.55;2.70;;;11.00;87.50;;;;;;2107394;28;20028;-69
2022/02/14 01:07:08;;;;;;;6.35;3.03;;;11.00;87.70;;;;;;2109839;28;20468;-69
2022/02/14 01:08:09;;;;;;;7.85;2.88;;;11.00;87.80;;;;;;2108161;28;20132;-69
2022/02/14 01:09:10;;;;;;;5.13;2.88;;;11.00;87.80;;;;;;2108617;28;20024;-69
2022/02/14 01:10:12;;;;;;;7.03;2.90;;;11.00;87.70;;;;;;2106598;28;20349;-69
2022/02/14 01:11:13;;;;;;;5.10;2.75;;;10.90;87.70;;;;;;2104860;28;20052;-69
2022/02/14 01:12:14;;;;;;;7.18;2.88;;;10.90;87.90;;;;;;2106073;28;20149;-69
2022/02/14 01:13:14;;;;;;;6.75;2.80;;;10.90;87.90;;;;;;2102754;28;20019;-69
2022/02/14 01:14:15;;;;;;;9.68;3.15;;;10.90;88.00;;;;;;2107945;28;20020;-69
2022/02/14 01:15:16;;;;;;;5.78;2.70;;;10.90;88.30;;;;;;2108927;28;20051;-69
2022/02/14 01:16:16;;;;;;;11.45;2.97;;;10.90;88.10;;;;;;2108679;28;20023;-69
2022/02/14 01:17:17;;;;;;;4.93;2.90;;;10.90;88.10;;;;;;2109802;28;20475;-69
2022/02/14 01:18:17;;;;;;;4.22;2.75;;;10.90;88.10;;;;;;2107193;28;20418;-69
2022/02/14 01:19:18;;;;;;;6.97;3.20;;;10.90;88.50;;;;;;2108808;28;20032;-69
2022/02/14 01:20:19;;;;;;;6.35;2.60;;;10.90;88.70;;;;;;2107829;28;20019;-69
2022/02/14 01:21:19;;;;;;;6.35;2.78;;;10.90;88.70;;;;;;2104010;28;20061;-69
2022/02/14 01:22:20;;;;;;;5.88;2.72;;;10.90;88.80;;;;;;2105491;28;20028;-69
2022/02/14 01:23:20;;;;;;;7.45;3.00;;;10.90;88.80;;;;;;2105749;28;20046;-69
2022/02/14 01:24:21;;;;;;;6.82;2.60;;;10.90;88.90;;;;;;2105610;28;20045;-69
2022/02/14 01:25:21;;;;;;;6.07;2.60;;;10.90;88.80;;;;;;2105218;28;20058;-69
2022/02/14 01:26:22;;;;;;;8.45;3.03;;;10.90;89.20;;;;;;2105377;28;20046;-69
2022/02/14 01:27:23;;;;;;;8.45;2.80;;;10.90;89.30;;;;;;2102246;28;20028;-69
2022/02/14 01:28:23;;;;;;;6.65;3.15;;;10.80;89.10;;;;;;2106677;28;20020;-69
2022/02/14 01:29:24;;;;;;;6.20;2.90;;;10.90;88.90;;;;;;2106648;28;20020;-69
2022/02/14 01:30:24;;;;;;;5.72;2.67;;;10.80;88.90;;;;;;2108213;28;20406;-69
2022/02/14 01:31:25;;;;;;;7.05;2.83;;;10.90;89.00;;;;;;2109568;28;20108;-70
2022/02/14 01:32:26;;;;;;;5.63;2.97;;;10.90;89.10;;;;;;2108531;28;20047;-69
2022/02/14 01:33:26;;;;;;;5.43;2.58;;;10.90;89.10;;;;;;2107958;28;20086;-69
2022/02/14 01:34:28;;;;;;;5.95;2.47;;;10.80;89.00;;;;;;2107011;28;20552;-69
2022/02/14 01:35:29;;;;;;;6.88;2.63;;;10.90;89.30;;;;;;2108138;28;20107;-69
2022/02/14 01:36:29;;;;;;;6.15;2.80;;;10.80;89.40;;;;;;2104800;28;20020;-69
2022/02/14 01:37:32;;;;;;;8.85;3.03;;;10.80;89.30;;;;;;2107269;28;20046;-69
2022/02/14 01:38:33;;;;;;;8.75;3.33;;;10.80;89.20;;;;;;2110894;28;20027;-69
2022/02/14 01:39:33;;;;;;;8.27;2.92;;;10.80;89.30;;;;;;2107595;28;20063;-69
2022/02/14 01:40:34;;;;;;;8.50;3.17;;;10.80;89.50;;;;;;2110046;28;20420;-69
2022/02/14 01:41:34;;;;;;;9.02;2.90;;;10.80;89.80;;;;;;2106100;28;20024;-69
2022/02/14 01:42:35;;;;;;;5.40;2.80;;;10.80;90.00;;;;;;2108840;28;20119;-69
2022/02/14 01:43:36;;;;;;;11.02;3.15;;;10.80;90.00;;;;;;2102883;28;20085;-69
2022/02/14 01:44:39;;;;;;;7.68;2.97;;;10.80;90.10;;;;;;2105094;28;20021;-69
2022/02/14 01:45:40;;;;;;;5.05;2.65;;;10.80;90.00;;;;;;2106737;28;20032;-69
2022/02/14 01:46:40;;;;;;;6.57;2.97;;;10.70;90.00;;;;;;2106928;28;20052;-69
2022/02/14 01:47:41;;;;;;;5.97;2.80;;;10.70;89.90;;;;;;2103013;28;20016;-69
2022/02/14 01:48:42;;;;;;;7.80;2.70;;;10.80;90.00;;;;;;2109809;28;20119;-69
2022/02/14 01:49:44;;;;;;;8.43;2.95;;;10.80;90.10;;;;;;2105227;28;20414;-69
2022/02/14 01:50:46;;;;;;;12.40;2.88;;;10.70;90.20;;;;;;2106017;28;20577;-69
2022/02/14 01:51:46;;;;;;;5.28;2.55;;;10.70;90.20;;;;;;2104932;28;20016;-69
2022/02/14 01:52:47;;;;;;;7.68;3.22;;;10.70;90.30;;;;;;2106893;28;20020;-69
2022/02/14 01:53:49;;;;;;;9.10;3.00;;;10.70;90.30;;;;;;2103602;28;20377;-69
2022/02/14 01:54:50;;;;;;;7.32;2.60;;;10.70;90.30;;;;;;2107260;28;20020;-69
2022/02/14 01:55:52;;;;;;;5.70;2.67;;;10.70;90.40;;;;;;2109563;28;20022;-69
2022/02/14 01:56:53;;;;;;;5.32;2.78;;;10.70;90.30;;;;;;2108084;28;20024;-69
2022/02/14 01:57:53;;;;;;;8.05;2.55;;;10.70;90.40;;;;;;2103729;28;20514;-69
2022/02/14 01:58:54;;;;;;;5.72;3.08;;;10.70;90.40;;;;;;2104692;28;20508;-69
2022/02/14 01:59:57;;;;;;;5.47;2.53;;;10.70;90.40;;;;;;2104815;28;20052;-69
2022/02/14 02:00:58;;;;;;;7.97;2.67;;;10.70;90.40;;;;;;2105091;28;20035;-69
2022/02/14 02:02:03;;;;;;;6.65;2.75;;;10.70;90.50;;;;;;2103964;28;20032;-69
2022/02/14 02:03:04;;;;;;;6.00;2.72;;;10.70;90.60;;;;;;2106162;28;20032;-69
2022/02/14 02:04:05;;;;;;;6.78;2.92;;;10.70;90.60;;;;;;2106138;28;20036;-69
2022/02/14 02:05:06;;;;;;;9.25;2.97;;;10.70;90.70;;;;;;2107758;28;20036;-69
2022/02/14 02:06:09;;;;;;;7.82;3.00;;;10.60;90.80;;;;;;2106759;28;20055;-69
2022/02/14 02:07:10;;;;;;;4.38;2.53;;;10.70;90.90;;;;;;2104302;28;20020;-69
2022/02/14 02:08:14;;;;;;;5.60;2.92;;;10.60;90.90;;;;;;2104205;28;20020;-69
2022/02/14 02:09:15;;;;;;;9.43;2.90;;;10.60;90.90;;;;;;2106052;28;20024;-69
2022/02/14 02:10:16;;;;;;;5.68;2.70;;;10.60;91.00;;;;;;2108331;28;20019;-69
2022/02/14 02:12:36;;;;;;;9.27;2.90;;;10.60;91.20;;;;;;2109380;28;20024;-69
2022/02/14 02:13:37;;;;;;;5.40;2.58;;;10.60;91.40;;;;;;2104523;28;20024;-69
2022/02/14 02:14:37;;;;;;;7.22;2.83;;;10.60;91.50;;;;;;2107172;28;20103;-69
2022/02/14 02:15:38;;;;;;;3.22;2.47;;;10.60;91.70;;;;;;2104212;28;20465;-69
2022/02/14 02:16:38;;;;;;;7.43;3.25;;;10.60;91.60;;;;;;2105009;28;20046;-69
2022/02/14 02:17:39;;;;;;;7.57;2.92;;;10.50;91.80;;;;;;2103868;28;20023;-69
2022/02/14 02:18:39;;;;;;;6.45;2.55;;;10.50;91.80;;;;;;2107478;28;20020;-69
2022/02/14 02:19:40;;;;;;;5.38;2.50;;;10.60;91.90;;;;;;2100396;28;20025;-69
2022/02/14 02:20:41;;;;;;;6.90;2.70;;;10.60;92.00;;;;;;2105254;28;20404;-69
2022/02/14 02:21:45;;;;;;;5.72;3.03;;;10.60;92.00;;;;;;2106268;28;20071;-69
2022/02/14 02:22:48;;;;;;;5.25;2.45;;;10.60;92.20;;;;;;2104817;28;20440;-69
2022/02/14 02:23:49;;;;;;;5.07;2.58;;;10.50;92.10;;;;;;2104321;28;20827;-69
2022/02/14 02:24:51;;;;;;;9.18;3.65;;;10.50;92.20;;;;;;2105139;28;20016;-69
2022/02/14 02:25:51;;;;;;;8.35;3.22;;;10.50;92.30;;;;;;2106525;28;20036;-69
2022/02/14 02:27:00;;;;;;;7.10;2.97;;;10.50;92.30;;;;;;2106057;28;20028;-69
2022/02/14 02:28:01;;;;;;;4.65;2.47;;;10.60;92.70;;;;;;2100423;28;20024;-69
2022/02/14 02:29:02;;;;;;;6.13;2.90;;;10.50;92.50;;;;;;2108020;28;20027;-69
2022/02/14 02:30:07;;;;;;;6.55;2.60;;;10.50;92.50;;;;;;2108628;28;20034;-69
2022/02/14 02:31:07;;;;;;;7.50;2.92;;;10.50;92.80;;;;;;2107913;28;20406;-69
2022/02/14 02:32:09;;;;;;;13.07;3.38;;;10.50;92.70;;;;;;2106459;28;20016;-69
2022/02/14 02:33:10;;;;;;;7.00;2.38;;;10.50;92.80;;;;;;2108169;28;20553;-69
2022/02/14 02:34:10;;;;;;;6.03;2.95;;;10.50;92.80;;;;;;2110200;28;20376;-69
2022/02/14 02:35:12;;;;;;;5.75;2.55;;;10.50;92.90;;;;;;2109820;28;20024;-69
2022/02/14 02:36:13;;;;;;;5.72;2.72;;;10.50;92.90;;;;;;2107264;28;20052;-69
2022/02/14 02:37:16;;;;;;;8.80;3.03;;;10.50;92.90;;;;;;2106808;28;20027;-69
2022/02/14 02:38:18;;;;;;;4.72;2.72;;;10.50;93.10;;;;;;2106930;28;20073;-69
2022/02/14 02:39:19;;;;;;;5.28;2.47;;;10.50;93.00;;;;;;2104339;28;20039;-69
2022/02/14 02:40:20;;;;;;;5.25;2.85;;;10.50;93.00;;;;;;2103347;28;20024;-69
2022/02/14 02:41:21;;;;;;;9.75;3.17;;;10.50;93.00;;;;;;2106888;28;20134;-69
2022/02/14 02:42:24;;;;;;;6.35;2.88;;;10.50;93.00;;;;;;2110154;28;20015;-69
2022/02/14 02:43:28;;;;;;;6.28;2.92;;;10.50;93.00;;;;;;2109448;28;20016;-69
2022/02/14 02:44:29;;;;;;;7.55;2.85;;;10.50;93.10;;;;;;2107150;28;20701;-69
2022/02/14 02:45:30;;;;;;;7.15;2.80;;;10.50;93.00;;;;;;2106075;28;20024;-69
2022/02/14 02:46:30;;;;;;;9.48;2.90;;;10.50;93.10;;;;;;2106066;28;20020;-69
2022/02/14 02:47:31;;;;;;;10.63;2.70;;;10.50;93.20;;;;;;2099119;28;20041;-69
2022/02/14 02:48:32;;;;;;;4.88;2.65;;;10.50;93.10;;;;;;2103018;28;20482;-69
2022/02/14 02:49:32;;;;;;;6.38;2.35;;;10.50;93.10;;;;;;2104215;28;20027;-69
2022/02/14 02:50:33;;;;;;;6.18;2.42;;;10.50;93.10;;;;;;2107353;28;20119;-69
2022/02/14 02:51:39;;;;;;;5.93;2.85;;;10.50;93.20;;;;;;2108989;28;20038;-69
2022/02/14 02:52:40;;;;;;;9.15;3.17;;;10.50;93.40;;;;;;2108610;28;20035;-69
2022/02/14 02:53:41;;;;;;;7.47;2.90;;;10.50;93.30;;;;;;2105808;28;20023;-69
2022/02/14 02:54:42;;;;;;;5.97;2.42;;;10.50;93.30;;;;;;2105761;28;20031;-69
2022/02/14 02:55:42;;;;;;;6.07;2.97;;;10.50;93.40;;;;;;2106219;28;20594;-69
2022/02/14 02:56:47;;;;;;;4.55;2.72;;;10.50;93.30;;;;;;2104302;28;20843;-69
2022/02/14 02:57:47;;;;;;;5.63;2.55;;;10.50;93.50;;;;;;2108114;28;20020;-69
2022/02/14 02:58:48;;;;;;;7.25;2.45;;;10.50;93.40;;;;;;2106939;28;20026;-69
2022/02/14 02:59:48;;;;;;;9.18;3.50;;;10.50;93.40;;;;;;2108476;28;20028;-69
2022/02/14 03:00:49;;;;;;;8.13;2.67;;;10.50;93.40;;;;;;2106361;28;20025;-69
2022/02/14 03:01:50;;;;;;;6.55;2.65;;;10.50;93.50;;;;;;2105566;28;20054;-69
2022/02/14 03:02:50;;;;;;;9.50;2.80;;;10.50;93.60;;;;;;2106103;28;20056;-68
2022/02/14 03:03:52;;;;;;;8.55;2.90;;;10.50;93.60;;;;;;2105860;28;20037;-69
2022/02/14 03:04:53;;;;;;;7.38;2.85;;;10.50;93.50;;;;;;2102939;28;20082;-69
2022/02/14 03:05:54;;;;;;;8.57;3.03;;;10.50;93.40;;;;;;2108273;28;20077;-69
2022/02/14 03:06:55;;;;;;;4.88;2.80;;;10.50;93.50;;;;;;2109666;28;20714;-69
2022/02/14 03:07:55;;;;;;;5.28;2.75;;;10.50;93.50;;;;;;2104956;28;20020;-69
2022/02/14 03:08:56;;;;;;;7.22;3.30;;;10.50;93.40;;;;;;2106400;28;20387;-69
2022/02/14 03:09:57;;;;;;;6.20;2.17;;;10.50;93.50;;;;;;2105391;28;20025;-69
2022/02/14 03:10:58;;;;;;;9.45;3.13;;;10.50;93.60;;;;;;2107688;28;20043;-69
2022/02/14 03:11:58;;;;;;;7.93;3.13;;;10.50;93.40;;;;;;2103775;28;20461;-69
2022/02/14 03:12:59;;;;;;;6.18;2.65;;;10.50;93.40;;;;;;2106859;28;20028;-69
2022/02/14 03:14:00;;;;;;;5.50;2.17;;;10.50;93.60;;;;;;2109998;28;20024;-69
2022/02/14 03:15:00;;;;;;;6.22;2.97;;;10.40;93.60;;;;;;2108211;28;20052;-70
2022/02/14 03:16:01;;;;;;;5.18;2.60;;;10.50;93.60;;;;;;2105373;28;20024;-69
2022/02/14 03:17:01;;;;;;;6.53;2.55;;;10.40;93.40;;;;;;2108398;28;20020;-69
2022/02/14 03:18:03;;;;;;;7.60;3.00;;;10.40;93.40;;;;;;2105237;28;20033;-69
2022/02/14 03:19:03;;;;;;;7.28;3.38;;;10.40;93.50;;;;;;2107052;28;20035;-69
2022/02/14 03:20:04;;;;;;;6.13;2.65;;;10.50;93.60;;;;;;2102788;28;20116;-69
2022/02/14 03:21:05;;;;;;;6.45;2.75;;;10.40;93.70;;;;;;2104176;28;20028;-69
2022/02/14 03:22:06;;;;;;;4.72;2.50;;;10.40;93.70;;;;;;2109984;28;20118;-69
2022/02/14 03:23:07;;;;;;;6.57;2.80;;;10.40;93.80;;;;;;2108594;28;20020;-69
2022/02/14 03:24:08;;;;;;;7.43;2.58;;;10.40;93.70;;;;;;2102262;28;20039;-69
2022/02/14 03:25:08;;;;;;;5.68;2.45;;;10.40;93.80;;;;;;2105224;28;20077;-69
2022/02/14 03:26:09;;;;;;;5.38;2.72;;;10.40;93.90;;;;;;2103484;28;20016;-69
2022/02/14 03:27:09;;;;;;;6.05;3.00;;;10.40;93.90;;;;;;2106067;28;20028;-69
2022/02/14 03:28:10;;;;;;;4.93;2.58;;;10.40;93.80;;;;;;2102562;28;20536;-69
2022/02/14 03:29:13;;;;;;;6.78;2.50;;;10.40;93.80;;;;;;2108397;28;20396;-69
2022/02/14 03:30:13;;;;;;;7.32;2.80;;;10.40;93.90;;;;;;2110101;28;20027;-69
2022/02/14 03:31:14;;;;;;;6.38;2.65;;;10.40;93.90;;;;;;2107334;28;20928;-69
2022/02/14 03:32:14;;;;;;;6.78;2.70;;;10.40;94.00;;;;;;2108222;28;20027;-69
2022/02/14 03:33:15;;;;;;;5.40;2.83;;;10.40;94.00;;;;;;2105737;28;20012;-69
2022/02/14 03:34:15;;;;;;;6.07;2.72;;;10.30;94.00;;;;;;2104553;28;20020;-69
2022/02/14 03:35:16;;;;;;;5.88;2.83;;;10.40;94.10;;;;;;2106380;28;20413;-69
2022/02/14 03:36:19;;;;;;;6.20;2.55;;;10.40;94.10;;;;;;2102445;28;20364;-69
2022/02/14 03:37:20;;;;;;;9.90;2.80;;;10.30;94.20;;;;;;2106464;28;20028;-69
2022/02/14 03:38:21;;;;;;;7.00;2.45;;;10.30;94.20;;;;;;2108955;28;20024;-69
2022/02/14 03:39:21;;;;;;;6.57;2.45;;;10.30;94.30;;;;;;2106987;28;20091;-69
2022/02/14 03:40:22;;;;;;;6.43;2.88;;;10.30;94.40;;;;;;2108392;28;20042;-69
2022/02/14 03:41:23;;;;;;;7.22;2.45;;;10.30;94.40;;;;;;2104254;28;20078;-69
2022/02/14 03:42:23;;;;;;;6.63;2.85;;;10.30;94.50;;;;;;2107323;28;20024;-69
2022/02/14 03:43:24;;;;;;;6.15;2.88;;;10.30;94.50;;;;;;2104546;28;20012;-69
2022/02/14 03:44:25;;;;;;;7.15;2.30;;;10.30;94.40;;;;;;2108575;28;20165;-69
2022/02/14 03:45:25;;;;;;;4.60;2.45;;;10.30;94.60;;;;;;2105921;28;20080;-69
2022/02/14 03:46:26;;;;;;;4.35;2.60;;;10.30;94.50;;;;;;2108309;28;20061;-69
2022/02/14 03:47:26;;;;;;;8.15;2.90;;;10.30;94.60;;;;;;2107075;28;20024;-69
2022/02/14 03:48:27;;;;;;;6.50;2.67;;;10.20;94.40;;;;;;2108156;28;20026;-69
2022/02/14 03:49:27;;;;;;;5.57;2.60;;;10.30;94.60;;;;;;2105009;28;20016;-69
2022/02/14 03:50:28;;;;;;;4.03;2.33;;;10.30;94.60;;;;;;2107331;28;20454;-69
2022/02/14 03:51:28;;;;;;;4.35;2.55;;;10.20;94.70;;;;;;2103214;28;20056;-69
2022/02/14 03:52:29;;;;;;;5.95;2.33;;;10.20;94.70;;;;;;2105371;28;20102;-69
2022/02/14 03:53:30;;;;;;;4.53;2.63;;;10.20;94.90;;;;;;2105983;28;20022;-69
2022/02/14 03:54:30;;;;;;;4.32;2.47;;;10.20;94.80;;;;;;2105929;28;20020;-69
2022/02/14 03:55:31;;;;;;;5.18;2.35;;;10.20;94.80;;;;;;2098735;28;20557;-69
2022/02/14 03:56:32;;;;;;;7.32;2.72;;;10.20;94.80;;;;;;2104724;28;20020;-69
2022/02/14 03:57:33;;;;;;;4.88;2.63;;;10.20;94.90;;;;;;2107115;28;20035;-69
2022/02/14 03:58:34;;;;;;;5.72;2.50;;;10.20;95.00;;;;;;2106151;28;20127;-69
2022/02/14 03:59:35;;;;;;;11.48;3.00;;;10.20;95.00;;;;;;2103097;28;20027;-69
2022/02/14 04:00:36;;;;;;;6.97;2.60;;;10.20;95.10;;;;;;2107415;28;20031;-69
2022/02/14 04:01:36;;;;;;;5.03;2.33;;;10.20;95.20;;;;;;2109610;28;20027;-69
2022/02/14 04:02:38;;;;;;;6.25;2.75;;;10.20;95.10;;;;;;2104901;28;20476;-69
2022/02/14 04:03:38;;;;;;;4.82;2.58;;;10.20;95.50;;;;;;2106963;28;20024;-69
2022/02/14 04:04:39;;;;;;;4.07;2.10;;;10.10;95.20;;;;;;2106794;28;20099;-69
2022/02/14 04:05:39;;;;;;;5.38;2.70;;;10.10;95.30;;;;;;2103340;28;20487;-69
2022/02/14 04:06:40;;;;;;;4.53;2.70;;;10.10;95.40;;;;;;2104302;28;20495;-69
2022/02/14 04:07:41;;;;;;;7.88;3.05;;;10.20;95.50;;;;;;2104131;28;20028;-69
2022/02/14 04:08:42;;;;;;;6.43;2.50;;;10.10;95.50;;;;;;2108096;28;20099;-69
2022/02/14 04:09:42;;;;;;;7.28;2.22;;;10.10;95.40;;;;;;2109652;28;20027;-69
2022/02/14 04:10:43;;;;;;;5.82;2.50;;;10.10;95.70;;;;;;2106709;28;20032;-69
2022/02/14 04:11:43;;;;;;;5.07;2.70;;;10.10;95.80;;;;;;2106935;28;20091;-69
2022/02/14 04:12:44;;;;;;;5.60;2.67;;;10.10;95.90;;;;;;2104768;28;20160;-69
2022/02/14 04:13:45;;;;;;;7.75;2.95;;;10.10;96.00;;;;;;2106117;28;20024;-69
2022/02/14 04:14:45;;;;;;;4.13;2.53;;;10.10;96.10;;;;;;2104391;28;20104;-69
2022/02/14 04:15:46;;;;;;;6.18;2.72;;;10.10;96.20;;;;;;2104720;28;20019;-69
2022/02/14 04:16:46;;;;;;;6.35;2.10;;;10.10;96.40;;;;;;2109341;28;20016;-69
2022/02/14 04:17:48;;;;;;;3.67;2.10;;;10.10;96.50;;;;;;2108901;28;20110;-69
2022/02/14 04:18:48;;;;;;;4.68;2.30;;;10.10;96.60;;;;;;2107879;28;20460;-69
2022/02/14 04:19:48;;;;;;;5.63;2.55;;;10.10;96.70;;;;;;2107001;28;20388;-69
2022/02/14 04:20:49;;;;;;;5.78;2.15;;;10.10;96.90;;;;;;2103512;28;20688;-69
2022/02/14 04:21:49;;;;;;;3.78;2.20;;;10.10;97.10;;;;;;2105679;28;20434;-69
2022/02/14 04:22:51;;;;;;;3.67;2.20;;;10.10;97.20;;;;;;2102531;28;20055;-69
2022/02/14 04:23:51;;;;;;;4.68;2.22;;;10.10;97.20;;;;;;2101751;28;20498;-69
2022/02/14 04:24:52;;;;;;;4.30;2.30;;;10.10;97.30;;;;;;2105457;28;20396;-69
2022/02/14 04:25:53;;;;;;;4.15;2.40;;;10.10;97.40;;;;;;2104860;28;20137;-69
2022/02/14 04:26:53;;;;;;;5.43;1.95;;;10.10;97.70;;;;;;2102146;28;20537;-69
2022/02/14 04:27:54;;;;;;;4.28;2.40;;;10.10;97.80;;;;;;2099226;28;20476;-69
2022/02/14 04:28:55;;;;;;;5.60;2.22;;;10.10;97.90;;;;;;2102610;28;20544;-69
2022/02/14 04:29:55;;;;;;;3.95;1.98;;;10.20;98.10;;;;;;2104889;28;20100;-69
2022/02/14 04:30:56;;;;;;;5.50;2.20;;;10.20;98.40;;;;;;2102153;28;20078;-69
2022/02/14 04:31:56;;;;;;;3.83;2.30;;;10.20;98.00;;;;;;2105993;28;20043;-69
2022/02/14 04:33:01;;;;;;;5.30;2.10;;;10.20;98.00;;;;;;2108340;28;20452;-69
2022/02/14 04:34:02;;;;;;;6.15;2.50;;;10.20;98.30;;;;;;2105780;28;20035;-69
2022/02/14 04:35:03;;;;;;;5.10;2.20;;;10.30;98.40;;;;;;2105640;28;20487;-69
2022/02/14 04:36:04;;;;;;;3.22;1.70;;;10.30;98.40;;;;;;2100731;28;20055;-69
2022/02/14 04:37:04;;;;;;;4.47;2.22;;;10.30;98.30;;;;;;2105348;28;20024;-69
2022/02/14 04:38:05;;;;;;;6.03;2.38;;;10.30;98.40;;;;;;2103206;28;20099;-69
2022/02/14 04:39:05;;;;;;;7.97;2.55;;;10.30;98.40;;;;;;2102252;28;20081;-69
2022/02/14 04:40:07;;;;;;;4.57;2.30;;;10.40;98.30;;;;;;2107274;28;20031;-69
2022/02/14 04:41:08;;;;;;;4.53;2.10;;;10.40;98.30;;;;;;2106949;28;20090;-69
2022/02/14 04:42:09;;;;;;;4.93;2.15;;;10.40;98.40;;;;;;2105075;28;20028;-69
2022/02/14 04:43:09;;;;;;;6.20;2.33;;;10.40;98.30;;;;;;2105045;28;20123;-69
2022/02/14 04:44:10;;;;;;;7.50;2.20;;;10.50;98.30;;;;;;2102081;28;20053;-69
2022/02/14 04:45:11;;;;;;;7.70;2.35;;;10.50;98.10;;;;;;2104762;28;20035;-69
2022/02/14 04:46:11;;;;;;;5.00;2.10;;;10.50;98.10;;;;;;2104814;28;20511;-69
2022/02/14 04:47:12;;;;;;;4.63;2.17;;;10.50;98.10;;;;;;2100358;28;20494;-69
2022/02/14 04:48:12;;;;;;;4.78;2.28;;;10.60;98.10;;;;;;2107151;28;20032;-69
2022/02/14 04:49:14;;;;;;;2.90;1.80;;;10.60;98.10;;;;;;2108240;28;20059;-69
2022/02/14 04:50:15;;;;;;;4.85;2.08;;;10.70;98.00;;;;;;2108277;28;20023;-69
2022/02/14 04:51:15;;;;;;;5.45;2.38;;;10.70;97.90;;;;;;2107500;28;20051;-69
2022/02/14 04:52:16;;;;;;;5.63;2.35;;;10.70;97.90;;;;;;2106733;28;20476;-69
2022/02/14 04:53:17;;;;;;;5.97;2.10;;;10.80;97.60;;;;;;2108586;28;20394;-69
2022/02/14 04:54:17;;;;;;;3.05;1.98;;;10.80;97.60;;;;;;2104719;28;20479;-69
2022/02/14 04:55:18;;;;;;;5.93;2.25;;;10.80;97.60;;;;;;2107470;28;20031;-69
2022/02/14 04:56:20;;;;;;;3.75;1.80;;;10.80;97.50;;;;;;2110239;28;20022;-69
2022/02/14 04:57:20;;;;;;;4.07;2.00;;;10.90;97.50;;;;;;2106983;28;20028;-69
2022/02/14 04:58:21;;;;;;;3.47;2.47;;;10.90;97.40;;;;;;2109932;28;20123;-69
2022/02/14 04:59:21;;;;;;;3.42;2.15;;;10.90;97.20;;;;;;2105653;28;20028;-69
2022/02/14 05:00:22;;;;;;;4.50;2.20;;;10.90;97.00;;;;;;2106123;28;20612;-69
2022/02/14 05:01:23;;;;;;;3.22;1.98;;;10.90;96.90;;;;;;2107169;28;20020;-69
2022/02/14 05:02:24;;;;;;;3.75;1.95;;;11.00;96.80;;;;;;2102946;28;20035;-69
2022/02/14 05:03:24;;;;;;;5.10;2.25;;;11.00;96.70;;;;;;2105208;28;20024;-70
2022/02/14 05:04:25;;;;;;;5.68;1.98;;;11.00;96.60;;;;;;2106502;28;20031;-69
2022/02/14 05:05:25;;;;;;;2.88;1.70;;;11.00;96.50;;;;;;2108073;28;20031;-69
2022/02/14 05:06:26;;;;;;;4.00;2.00;;;11.00;96.40;;;;;;2108505;28;20019;-69
2022/02/14 05:07:26;;;;;;;5.78;2.42;;;11.10;96.20;;;;;;2106498;28;20024;-69
2022/02/14 05:08:27;;;;;;;4.57;2.47;;;11.00;96.00;;;;;;2106377;28;20472;-69
2022/02/14 05:09:28;;;;;;;4.72;2.15;;;11.10;95.90;;;;;;2107942;28;20050;-69
2022/02/14 05:10:28;;;;;;;5.60;2.08;;;11.10;96.00;;;;;;2106437;28;20031;-69
2022/02/14 05:11:29;;;;;;;5.18;2.10;;;11.10;96.00;;;;;;2110589;28;20076;-69
2022/02/14 05:12:29;;;;;;;7.35;2.42;;;11.10;95.80;;;;;;2110540;28;20555;-69
2022/02/14 05:13:30;;;;;;;6.70;1.90;;;11.10;95.80;;;;;;2109253;28;20090;-69
2022/02/14 05:14:31;;;;;;;5.20;1.75;;;11.10;95.90;;;;;;2110012;28;20063;-69
2022/02/14 05:15:31;;;;;;;5.20;2.13;;;11.10;95.60;;;;;;2106832;28;20012;-69
2022/02/14 05:16:32;;;;;;;5.63;2.22;;;11.10;95.50;;;;;;2101770;28;20021;-69
2022/02/14 05:17:33;;;;;;;2.97;2.08;;;11.10;95.50;;;;;;2105127;28;20024;-69